Csl Tarantau — C6CL9 — position and weather

sailwx.info

Track history (hours):
 
Tides and Currents Weather Stations Pressure Air Temp Water Temp Dewpoint Dewpoint Depression Visibility Wind Speed Wind Dir Waves Ship Positions

Csl Tarantau

Last reported at 2017-Nov-29 17:37 UTC. Time now 2017-Dec-11 11:33 UTC.
Position N 27°39' W 082°36'.
Warning: this ship's position is 11 days out of date.

Length 220 m; draft 11.6 m.

Type: Ship. MMSI: 311000508.

Date/timePositionNaut miles runAvg speedWind from/ knotsBaromVisibWave heightAir tempDewpointWater temp
2017-Nov-29 17:37N 27°39' W 082°36'110.3
2017-Nov-29 17:30N 27°39' W 082°35'1 0.0
2017-Nov-28 03:16N 27°38' W 082°34'3 4.1
2017-Nov-28 02:38N 27°39' W 082°37'1 7.0
2017-Nov-28 02:30N 27°38' W 082°37'51 4.3
2017-Nov-27 14:40N 27°00' W 083°15'232 6.2
2017-Nov-26 01:31N 24°27' W 080°02'010.5
2017-Nov-26 01:30N 24°27' W 080°02'2811.0
2017-Nov-25 22:56N 24°43' W 079°36'4710.9
2017-Nov-25 18:39N 25°30' W 079°33'210.4
2017-Nov-25 18:29N 25°31' W 079°33'510.4
2017-Nov-25 18:00N 25°36' W 079°32'610.5
2017-Nov-25 17:23N 25°43' W 079°31'510.5
2017-Nov-25 16:55N 25°48' W 079°30'511.3
2017-Nov-25 16:30N 25°52' W 079°29'1613.0
2017-Nov-25 15:17N 26°08' W 079°25'412.8
2017-Nov-25 15:00N 26°11' W 079°24'712.8
2017-Nov-25 14:25N 26°19' W 079°24'  
Track history (hours):
 
Tides and Currents Weather Stations Pressure Air Temp Water Temp Dewpoint Dewpoint Depression Visibility Wind Speed Wind Dir Waves Ship Positions

Csl Tarantau

Last reported at 2017-Nov-29 17:37 UTC. Time now 2017-Dec-11 11:33 UTC.
Position N 27°39' W 082°36'.
Warning: this ship's position is 11 days out of date.

Length 220 m; draft 11.6 m.

Type: Ship. MMSI: 311000508.

Date/timePositionNaut miles runAvg speedWind from/ knotsBaromVisibWave heightAir tempDewpointWater temp
2017-Nov-29 17:37N 27°39' W 082°36'110.3
2017-Nov-29 17:30N 27°39' W 082°35'1 0.0
2017-Nov-28 03:16N 27°38' W 082°34'3 4.1
2017-Nov-28 02:38N 27°39' W 082°37'1 7.0
2017-Nov-28 02:30N 27°38' W 082°37'51 4.3
2017-Nov-27 14:40N 27°00' W 083°15'232 6.2
2017-Nov-26 01:31N 24°27' W 080°02'010.5
2017-Nov-26 01:30N 24°27' W 080°02'2811.0
2017-Nov-25 22:56N 24°43' W 079°36'4710.9
2017-Nov-25 18:39N 25°30' W 079°33'210.4
2017-Nov-25 18:29N 25°31' W 079°33'510.4
2017-Nov-25 18:00N 25°36' W 079°32'610.5
2017-Nov-25 17:23N 25°43' W 079°31'510.5
2017-Nov-25 16:55N 25°48' W 079°30'511.3
2017-Nov-25 16:30N 25°52' W 079°29'1613.0
2017-Nov-25 15:17N 26°08' W 079°25'412.8
2017-Nov-25 15:00N 26°11' W 079°24'712.8
2017-Nov-25 14:25N 26°19' W 079°24'  

Dump ship's entire track history